Time;durP1;ratioP1;P1;durP2;ratioP2;P2;SDS_P1;SDS_P2;PMS_P1;PMS_P2;Temp;Humidity;BMP_temperature;BMP_pressure;BME280_temperature;BME280_humidity;BME280_pressure;Samples;Min_cycle;Max_cycle;Signal;HPM_P1;HPM_P2
2023/04/02 00:00:16;;;;;;;36.20;22.60;;;7.50;99.90;;;;;;5024693;28;20028;-82
2023/04/02 00:03:07;;;;;;;30.83;19.27;;;7.50;99.90;;;;;;5051047;28;20029;-81
2023/04/02 00:05:53;;;;;;;32.55;19.63;;;7.40;99.90;;;;;;5070148;28;20041;-82
2023/04/02 00:08:21;;;;;;;40.67;23.50;;;7.40;99.90;;;;;;5040338;28;20055;-82
2023/04/02 00:10:53;;;;;;;37.53;24.08;;;7.50;99.90;;;;;;5059401;28;20048;-82
2023/04/02 00:13:32;;;;;;;37.78;20.85;;;7.50;99.90;;;;;;5055141;28;20017;-84
2023/04/02 00:15:59;;;;;;;36.50;23.48;;;7.50;99.90;;;;;;5034669;28;20028;-82
2023/04/02 00:18:26;;;;;;;39.75;21.67;;;7.50;99.90;;;;;;5048864;28;20072;-82
2023/04/02 00:21:03;;;;;;;40.22;22.90;;;7.50;99.90;;;;;;5033082;28;20061;-82
2023/04/02 00:23:29;;;;;;;28.98;16.75;;;7.40;99.90;;;;;;5034432;28;20364;-83
2023/04/02 00:25:55;;;;;;;39.00;22.60;;;7.40;99.90;;;;;;5033876;28;20068;-82
2023/04/02 00:28:23;;;;;;;38.97;23.75;;;7.40;99.90;;;;;;5017893;28;20475;-81
2023/04/02 00:30:54;;;;;;;33.00;19.83;;;7.40;99.90;;;;;;5034501;28;20014;-83
2023/04/02 00:33:23;;;;;;;31.52;21.77;;;7.40;99.90;;;;;;5034446;28;20562;-82
2023/04/02 00:35:54;;;;;;;40.78;22.88;;;7.50;99.90;;;;;;5034223;28;20026;-82
2023/04/02 00:38:28;;;;;;;37.42;21.95;;;7.50;99.90;;;;;;5034705;28;20101;-82
2023/04/02 00:40:58;;;;;;;37.42;23.50;;;7.50;99.90;;;;;;5034789;28;20072;-83
2023/04/02 00:43:26;;;;;;;35.95;21.52;;;7.50;99.90;;;;;;5035182;28;20017;-82
2023/04/02 00:46:00;;;;;;;39.30;22.45;;;7.50;99.90;;;;;;5032749;28;20017;-83
2023/04/02 00:48:42;;;;;;;38.83;23.85;;;7.50;99.90;;;;;;5034411;28;20491;-84
2023/04/02 00:51:12;;;;;;;41.70;22.55;;;7.40;99.90;;;;;;5034005;28;20021;-84
2023/04/02 00:53:39;;;;;;;33.97;20.02;;;7.50;99.90;;;;;;5035566;28;20026;-82
2023/04/02 00:56:26;;;;;;;39.17;21.52;;;7.40;99.90;;;;;;5037387;28;20032;-81
2023/04/02 00:58:54;;;;;;;31.15;19.30;;;7.50;99.90;;;;;;5034486;28;20029;-82
2023/04/02 01:01:35;;;;;;;37.03;20.75;;;7.50;99.90;;;;;;5033957;28;20056;-81
2023/04/02 01:04:02;;;;;;;38.55;23.58;;;7.50;99.90;;;;;;5033979;28;20026;-83
2023/04/02 01:06:33;;;;;;;39.92;21.50;;;7.50;99.90;;;;;;5015782;28;20049;-82
2023/04/02 01:09:22;;;;;;;42.88;20.48;;;7.50;99.90;;;;;;5034318;28;20025;-83
2023/04/02 01:12:13;;;;;;;36.05;23.60;;;7.50;99.90;;;;;;5033938;28;20029;-82
2023/04/02 01:14:38;;;;;;;34.08;20.40;;;7.50;99.90;;;;;;5035232;28;20057;-82
2023/04/02 01:17:07;;;;;;;35.83;22.70;;;7.60;99.90;;;;;;5018176;28;20049;-81
2023/04/02 01:20:09;;;;;;;37.42;23.92;;;7.50;99.90;;;;;;5037107;28;20021;-80
2023/04/02 01:22:58;;;;;;;36.75;20.38;;;7.60;99.90;;;;;;5026240;28;20052;-82
2023/04/02 01:25:34;;;;;;;37.88;22.48;;;7.60;99.90;;;;;;5033823;28;20100;-81
2023/04/02 01:28:05;;;;;;;36.50;23.73;;;7.70;99.90;;;;;;5033447;28;20029;-81
2023/04/02 01:30:35;;;;;;;39.55;23.15;;;7.70;99.90;;;;;;5032962;28;20025;-82
2023/04/02 01:33:02;;;;;;;43.20;22.60;;;7.70;99.90;;;;;;5032478;28;20514;-81
2023/04/02 01:35:32;;;;;;;33.00;20.13;;;7.70;99.90;;;;;;5033657;28;20376;-81
2023/04/02 01:38:04;;;;;;;34.88;21.27;;;7.70;99.90;;;;;;5036417;28;20471;-83
2023/04/02 01:40:45;;;;;;;35.25;21.80;;;7.70;99.90;;;;;;5034266;28;20026;-82
2023/04/02 01:43:26;;;;;;;39.20;22.23;;;7.80;99.90;;;;;;5006934;28;20017;-83
2023/04/02 01:45:52;;;;;;;42.90;25.67;;;7.80;99.90;;;;;;5036187;28;20031;-81
2023/04/02 01:48:23;;;;;;;39.95;22.90;;;7.90;99.90;;;;;;5039486;28;20036;-82
2023/04/02 01:50:53;;;;;;;35.25;23.25;;;7.90;99.90;;;;;;5016049;28;20022;-81
2023/04/02 01:53:21;;;;;;;35.83;21.77;;;7.90;99.90;;;;;;5033642;28;20068;-80
2023/04/02 01:55:59;;;;;;;43.53;24.52;;;7.90;99.90;;;;;;5035053;28;20028;-81
2023/04/02 01:58:30;;;;;;;37.97;23.63;;;7.90;99.90;;;;;;5034931;28;20086;-82
2023/04/02 02:01:17;;;;;;;39.47;24.15;;;7.90;99.90;;;;;;5016555;28;20360;-83
2023/04/02 02:03:44;;;;;;;40.25;23.20;;;7.90;99.90;;;;;;5027834;28;20068;-82
2023/04/02 02:06:16;;;;;;;37.50;20.95;;;7.90;99.90;;;;;;5035287;28;20053;-83
2023/04/02 02:08:53;;;;;;;36.60;22.80;;;7.90;99.90;;;;;;5038111;28;20136;-81
2023/04/02 02:11:23;;;;;;;40.65;26.58;;;7.90;99.90;;;;;;5016282;28;20032;-82
2023/04/02 02:14:04;;;;;;;41.90;23.85;;;7.80;99.90;;;;;;5033146;28;20033;-81
2023/04/02 02:16:30;;;;;;;41.80;23.55;;;7.80;99.90;;;;;;5034652;28;20105;-81
2023/04/02 02:19:02;;;;;;;35.95;23.50;;;7.80;99.90;;;;;;5033777;28;20025;-80
2023/04/02 02:21:39;;;;;;;39.33;23.40;;;7.70;99.90;;;;;;5026879;28;20368;-80
2023/04/02 02:24:17;;;;;;;37.00;21.30;;;7.70;99.90;;;;;;5032573;28;20403;-80
2023/04/02 02:26:46;;;;;;;41.17;21.58;;;7.60;99.90;;;;;;5034465;28;20025;-80
2023/04/02 02:29:17;;;;;;;35.45;18.63;;;7.60;99.90;;;;;;5043646;28;20040;-79
2023/04/02 02:31:46;;;;;;;35.72;22.73;;;7.60;99.90;;;;;;5033530;28;20309;-80
2023/04/02 02:34:20;;;;;;;45.58;23.13;;;7.60;99.90;;;;;;5023848;28;20108;-80
2023/04/02 02:36:55;;;;;;;36.30;22.88;;;7.60;99.90;;;;;;5032132;28;20025;-82
2023/04/02 02:39:37;;;;;;;35.38;22.30;;;7.60;99.90;;;;;;5039565;28;20468;-82
2023/04/02 02:42:27;;;;;;;36.95;23.60;;;7.60;99.90;;;;;;5039291;28;20448;-83
2023/04/02 02:44:55;;;;;;;36.38;22.38;;;7.70;99.90;;;;;;5039593;28;20101;-80
2023/04/02 02:47:29;;;;;;;33.63;19.98;;;7.70;99.90;;;;;;5049393;28;20103;-80
2023/04/02 02:49:59;;;;;;;37.25;22.27;;;7.60;99.90;;;;;;5024339;28;20789;-82
2023/04/02 02:52:31;;;;;;;38.80;22.33;;;7.70;99.90;;;;;;5020162;28;20555;-84
2023/04/02 02:55:03;;;;;;;32.38;18.35;;;7.60;99.90;;;;;;5024249;28;20021;-82
2023/04/02 02:57:35;;;;;;;37.95;21.55;;;7.60;99.90;;;;;;5038694;28;20025;-82
2023/04/02 03:00:05;;;;;;;38.30;21.02;;;7.60;99.90;;;;;;5039845;28;20034;-81
2023/04/02 03:02:38;;;;;;;28.55;17.55;;;7.60;99.90;;;;;;5048127;28;20021;-82
2023/04/02 03:05:06;;;;;;;36.03;19.70;;;7.60;99.90;;;;;;5040869;28;20049;-81
2023/04/02 03:07:36;;;;;;;32.03;18.58;;;7.60;99.90;;;;;;5040193;28;20108;-81
2023/04/02 03:10:16;;;;;;;33.60;21.20;;;7.60;99.90;;;;;;5039437;28;20109;-82
2023/04/02 03:13:26;;;;;;;36.03;19.60;;;7.60;99.90;;;;;;5031684;28;20014;-82
2023/04/02 03:16:19;;;;;;;34.40;18.02;;;7.70;99.90;;;;;;5041278;28;20027;-81
2023/04/02 03:19:08;;;;;;;29.17;17.35;;;7.70;99.90;;;;;;5021202;28;20021;-83
2023/04/02 03:21:48;;;;;;;34.20;19.58;;;7.70;99.90;;;;;;5038251;28;20037;-81
2023/04/02 03:24:52;;;;;;;32.65;20.67;;;7.70;99.90;;;;;;5038755;28;20021;-84
2023/04/02 03:27:45;;;;;;;29.83;15.45;;;7.70;99.90;;;;;;5039304;28;20067;-82
2023/04/02 03:30:46;;;;;;;26.77;15.45;;;7.70;99.90;;;;;;5041810;28;20029;-82
2023/04/02 03:33:25;;;;;;;26.95;15.35;;;7.70;99.90;;;;;;5029591;28;20525;-80
2023/04/02 03:36:11;;;;;;;28.15;16.05;;;7.70;99.90;;;;;;5038945;28;20029;-80
2023/04/02 03:38:45;;;;;;;27.83;15.57;;;7.60;99.90;;;;;;5020208;28;20017;-80
2023/04/02 03:41:20;;;;;;;33.28;17.48;;;7.60;99.90;;;;;;5020936;28;20025;-80
2023/04/02 03:43:52;;;;;;;26.75;15.10;;;7.60;99.90;;;;;;5036955;28;20033;-82
2023/04/02 03:46:24;;;;;;;21.02;14.70;;;7.60;99.90;;;;;;5038842;28;20081;-81
2023/04/02 03:48:57;;;;;;;27.48;17.17;;;7.60;99.90;;;;;;5050415;28;20037;-81
2023/04/02 03:51:35;;;;;;;22.52;15.30;;;7.60;99.90;;;;;;5049801;28;20058;-79
2023/04/02 03:54:02;;;;;;;22.63;14.90;;;7.70;99.90;;;;;;5045581;28;20088;-79
2023/04/02 03:56:46;;;;;;;23.05;11.45;;;7.60;99.90;;;;;;5042424;28;20108;-83
2023/04/02 03:59:20;;;;;;;25.15;14.35;;;7.60;99.90;;;;;;5041353;28;20037;-81
2023/04/02 04:01:58;;;;;;;26.25;13.27;;;7.60;99.90;;;;;;5040480;28;20030;-82
2023/04/02 04:04:25;;;;;;;;;;;7.60;99.90;;;;;;5039120;28;20530;-81
2023/04/02 04:06:51;;;;;;;24.27;15.10;;;7.60;99.90;;;;;;5018088;28;19975;-84
2023/04/02 04:09:35;;;;;;;20.15;13.48;;;7.60;99.90;;;;;;5017173;28;20065;-84
2023/04/02 04:12:20;;;;;;;23.40;15.38;;;7.70;99.90;;;;;;5037874;28;20053;-81
2023/04/02 04:14:58;;;;;;;23.10;12.80;;;7.70;99.90;;;;;;5020381;28;20033;-82
2023/04/02 04:17:50;;;;;;;23.88;15.15;;;7.80;99.90;;;;;;5035061;28;20057;-82
2023/04/02 04:20:32;;;;;;;24.27;14.95;;;7.80;99.90;;;;;;5035337;28;20021;-83
2023/04/02 04:23:17;;;;;;;19.63;12.60;;;7.90;99.90;;;;;;5035007;28;20021;-83
2023/04/02 04:25:43;;;;;;;20.27;13.15;;;8.00;99.90;;;;;;5034799;28;20025;-82
2023/04/02 04:28:20;;;;;;;22.73;13.10;;;8.00;99.90;;;;;;5034052;28;20124;-82
2023/04/02 04:31:00;;;;;;;;;;;7.90;99.90;;;;;;5033777;28;20053;-81
2023/04/02 04:33:38;;;;;;;19.42;11.75;;;7.90;99.90;;;;;;5034733;28;20380;-80
2023/04/02 04:36:14;;;;;;;22.10;12.57;;;7.90;99.90;;;;;;5020902;28;20032;-82
2023/04/02 04:38:45;;;;;;;17.25;10.27;;;7.80;99.90;;;;;;5035373;28;20028;-81
2023/04/02 04:41:20;;;;;;;24.83;13.00;;;7.80;99.90;;;;;;5021875;28;20021;-80
2023/04/02 04:44:14;;;;;;;20.20;11.48;;;7.70;99.90;;;;;;5036644;28;20021;-80
2023/04/02 04:46:43;;;;;;;16.65;10.10;;;7.70;99.90;;;;;;5035876;28;20036;-80
2023/04/02 04:49:31;;;;;;;21.15;11.38;;;7.70;99.90;;;;;;5017059;28;20042;-81
2023/04/02 04:52:00;;;;;;;24.85;14.38;;;7.70;99.90;;;;;;5042398;28;20029;-81
2023/04/02 04:54:27;;;;;;;21.65;12.10;;;7.70;99.90;;;;;;5026956;28;20465;-81
2023/04/02 04:57:02;;;;;;;25.27;14.35;;;7.70;99.90;;;;;;5040712;28;20028;-82
2023/04/02 04:59:32;;;;;;;17.58;11.25;;;7.70;99.90;;;;;;5044938;28;20053;-82
2023/04/02 05:02:10;;;;;;;21.98;13.13;;;7.70;99.90;;;;;;5048637;28;20036;-84
2023/04/02 05:04:42;;;;;;;23.60;11.50;;;7.70;99.90;;;;;;5016847;28;20407;-84
2023/04/02 05:07:15;;;;;;;18.60;12.50;;;7.70;99.90;;;;;;5026798;28;20047;-82
2023/04/02 05:10:10;;;;;;;20.52;11.95;;;7.80;99.90;;;;;;5007457;28;20121;-82
2023/04/02 05:13:01;;;;;;;20.17;13.23;;;7.80;99.90;;;;;;5026878;28;20086;-83
2023/04/02 05:15:40;;;;;;;21.10;12.65;;;7.70;99.90;;;;;;5038704;28;20478;-83
2023/04/02 05:18:09;;;;;;;19.77;11.95;;;7.80;99.90;;;;;;5032659;28;20033;-83
2023/04/02 05:20:53;;;;;;;24.60;15.23;;;7.90;99.90;;;;;;5043417;28;20101;-82
2023/04/02 05:23:27;;;;;;;23.70;13.43;;;7.90;99.90;;;;;;5039698;28;20017;-83
2023/04/02 05:26:09;;;;;;;21.40;14.77;;;8.00;99.90;;;;;;5028268;28;20116;-82
2023/04/02 05:28:46;;;;;;;23.88;13.82;;;8.00;99.90;;;;;;5038104;28;20045;-82
2023/04/02 05:31:25;;;;;;;23.63;14.60;;;8.10;99.90;;;;;;5040386;28;20029;-82
2023/04/02 05:33:52;;;;;;;21.92;13.25;;;8.10;99.90;;;;;;5038986;28;20565;-82
2023/04/02 05:36:23;;;;;;;24.30;13.48;;;8.10;99.90;;;;;;5036885;28;20029;-82
2023/04/02 05:38:51;;;;;;;21.50;13.35;;;8.00;99.90;;;;;;5029801;28;20029;-81
2023/04/02 05:41:29;;;;;;;17.55;11.52;;;8.00;99.90;;;;;;5032224;28;20382;-81
2023/04/02 05:44:26;;;;;;;21.58;12.07;;;8.00;99.90;;;;;;5044713;28;20017;-83
2023/04/02 05:47:10;;;;;;;28.77;15.55;;;7.90;99.90;;;;;;5045822;28;20033;-81
2023/04/02 05:49:43;;;;;;;15.98;11.38;;;7.90;99.90;;;;;;5037731;28;20051;-81
2023/04/02 05:52:19;;;;;;;18.23;13.00;;;7.90;99.90;;;;;;5035714;28;20022;-80
2023/04/02 05:54:48;;;;;;;27.60;13.13;;;7.80;99.90;;;;;;5020013;28;20423;-79
2023/04/02 05:57:21;;;;;;;17.70;13.63;;;7.80;99.90;;;;;;5040090;28;20017;-82
2023/04/02 05:59:55;;;;;;;24.30;14.65;;;7.80;99.90;;;;;;5041256;28;20028;-84
2023/04/02 06:02:29;;;;;;;24.73;16.52;;;7.80;99.90;;;;;;5032940;28;20113;-82
2023/04/02 06:05:12;;;;;;;27.15;16.15;;;7.90;99.90;;;;;;5007526;28;20125;-83
2023/04/02 06:07:46;;;;;;;24.70;17.42;;;8.00;99.90;;;;;;5009556;28;20032;-83
2023/04/02 06:10:22;;;;;;;28.63;14.45;;;8.00;99.90;;;;;;4998631;28;20037;-83
2023/04/02 06:13:04;;;;;;;22.73;14.68;;;8.00;99.90;;;;;;4999173;28;20387;-81
2023/04/02 06:15:32;;;;;;;23.75;13.32;;;8.10;99.90;;;;;;5015139;28;20037;-82
2023/04/02 06:18:32;;;;;;;23.08;15.50;;;8.20;99.90;;;;;;5030512;28;20125;-82
2023/04/02 06:20:59;;;;;;;21.13;12.98;;;8.20;99.90;;;;;;4983929;28;20036;-82
2023/04/02 06:23:39;;;;;;;19.92;13.18;;;8.20;99.90;;;;;;5030285;28;20029;-83
2023/04/02 06:26:09;;;;;;;21.30;11.60;;;8.30;99.90;;;;;;5017626;28;20045;-82
2023/04/02 06:28:47;;;;;;;24.17;15.63;;;8.30;99.90;;;;;;5019943;28;20033;-84
2023/04/02 06:31:32;;;;;;;20.80;14.30;;;8.40;99.90;;;;;;5017250;28;20353;-82
2023/04/02 06:33:58;;;;;;;26.65;13.95;;;8.50;99.90;;;;;;5015978;28;20028;-82
2023/04/02 06:36:33;;;;;;;23.88;16.20;;;8.50;99.90;;;;;;5007381;28;20061;-81
2023/04/02 06:39:29;;;;;;;23.55;14.48;;;8.60;99.80;;;;;;5033520;28;20104;-83
2023/04/02 06:42:15;;;;;;;27.85;15.88;;;8.70;99.50;;;;;;5018628;28;20082;-82
2023/04/02 06:44:41;;;;;;;18.80;11.30;;;8.80;99.20;;;;;;5021464;28;20359;-82
2023/04/02 06:47:33;;;;;;;20.20;13.18;;;8.80;98.40;;;;;;5007317;28;20026;-81
2023/04/02 06:50:22;;;;;;;25.40;15.20;;;8.70;98.80;;;;;;5011774;28;20025;-82
2023/04/02 06:52:55;;;;;;;26.20;13.70;;;9.00;99.00;;;;;;5028251;28;20018;-80
2023/04/02 06:55:42;;;;;;;23.98;14.38;;;9.20;98.40;;;;;;5028017;28;20033;-81
2023/04/02 06:58:09;;;;;;;22.95;14.38;;;9.50;98.20;;;;;;5021432;28;20036;-80
2023/04/02 07:00:40;;;;;;;20.08;14.32;;;9.70;97.50;;;;;;5018980;28;20075;-81
2023/04/02 07:03:15;;;;;;;19.60;11.90;;;9.80;96.80;;;;;;5017730;28;20510;-82
2023/04/02 07:05:41;;;;;;;22.67;15.63;;;9.70;96.30;;;;;;5032781;28;20562;-81
2023/04/02 07:08:07;;;;;;;20.25;13.27;;;9.50;96.50;;;;;;5041433;28;20056;-81
2023/04/02 07:10:34;;;;;;;16.90;12.43;;;9.40;96.70;;;;;;5039195;28;20072;-82
2023/04/02 07:13:01;;;;;;;17.15;9.63;;;9.30;96.40;;;;;;5022789;28;20064;-83
2023/04/02 07:15:28;;;;;;;22.65;13.35;;;9.30;96.60;;;;;;5043789;28;20109;-79
2023/04/02 07:17:57;;;;;;;24.92;15.45;;;9.00;96.60;;;;;;5039598;28;20057;-79
2023/04/02 07:20:33;;;;;;;28.00;15.30;;;9.00;97.00;;;;;;5044419;28;20064;-82
2023/04/02 07:22:59;;;;;;;18.73;13.80;;;9.00;96.70;;;;;;5045341;28;20104;-82
2023/04/02 07:25:26;;;;;;;20.92;12.55;;;9.00;97.00;;;;;;5021277;28;20112;-84
2023/04/02 07:27:55;;;;;;;25.23;13.25;;;9.10;96.80;;;;;;5024341;28;20091;-84
2023/04/02 07:30:21;;;;;;;20.17;12.10;;;9.00;96.40;;;;;;5020778;28;20043;-83
2023/04/02 07:32:48;;;;;;;22.92;13.02;;;8.90;96.70;;;;;;5052101;28;20044;-81
2023/04/02 07:35:14;;;;;;;26.00;14.23;;;8.80;96.80;;;;;;5059569;28;20040;-82
2023/04/02 07:37:40;;;;;;;18.75;13.13;;;8.70;96.90;;;;;;5047176;28;20029;-82
2023/04/02 07:40:14;;;;;;;25.33;14.48;;;8.70;97.20;;;;;;5037414;28;20036;-83
2023/04/02 07:42:40;;;;;;;18.58;12.60;;;8.70;97.10;;;;;;5023203;28;20387;-83
2023/04/02 07:45:06;;;;;;;25.00;15.93;;;8.70;97.10;;;;;;5047386;28;20025;-82
2023/04/02 07:47:32;;;;;;;18.30;12.38;;;8.70;97.20;;;;;;5043353;28;20021;-82
2023/04/02 07:49:58;;;;;;;20.48;13.13;;;8.70;97.20;;;;;;5031233;28;20074;-82
2023/04/02 07:52:24;;;;;;;22.85;14.95;;;8.80;97.30;;;;;;5054894;28;20163;-82
2023/04/02 07:54:50;;;;;;;23.90;15.55;;;8.80;97.20;;;;;;5055920;28;20383;-80
2023/04/02 07:57:17;;;;;;;23.90;16.00;;;9.00;97.30;;;;;;5030056;28;20022;-82
2023/04/02 07:59:43;;;;;;;20.60;14.10;;;9.00;97.10;;;;;;5046251;28;20064;-81
2023/04/02 08:02:24;;;;;;;20.08;13.98;;;9.30;96.60;;;;;;5037970;28;20026;-82
2023/04/02 08:04:50;;;;;;;23.08;15.82;;;9.10;96.40;;;;;;5046436;28;20049;-83
2023/04/02 08:07:17;;;;;;;28.70;18.15;;;9.00;96.60;;;;;;5045585;28;20028;-85
2023/04/02 08:09:43;;;;;;;28.42;15.45;;;9.00;96.90;;;;;;5038919;28;20044;-83
2023/04/02 08:12:13;;;;;;;23.77;16.58;;;9.10;96.60;;;;;;5056893;28;20025;-83
2023/04/02 08:14:39;;;;;;;24.85;15.30;;;9.10;96.90;;;;;;5050500;28;20482;-83
2023/04/02 08:17:05;;;;;;;24.42;16.27;;;9.20;96.90;;;;;;5058041;28;20023;-83
2023/04/02 08:19:32;;;;;;;25.25;18.30;;;9.20;96.60;;;;;;5054374;28;20111;-82
2023/04/02 08:21:58;;;;;;;20.30;14.02;;;9.20;96.60;;;;;;5042124;28;20017;-83
2023/04/02 08:24:24;;;;;;;21.75;11.90;;;9.20;96.50;;;;;;5036042;28;20061;-85
2023/04/02 08:26:52;;;;;;;25.30;16.70;;;9.10;96.40;;;;;;5042609;28;20029;-82
2023/04/02 08:29:18;;;;;;;20.65;13.00;;;8.90;96.90;;;;;;5042272;28;20029;-83
2023/04/02 08:31:44;;;;;;;24.27;17.15;;;8.80;97.10;;;;;;5026448;28;20029;-82
2023/04/02 08:34:13;;;;;;;25.70;16.85;;;8.90;97.30;;;;;;5055040;28;20021;-85
2023/04/02 08:36:42;;;;;;;25.70;15.90;;;8.90;97.20;;;;;;5061607;28;20036;-84
2023/04/02 08:39:10;;;;;;;34.78;17.33;;;9.00;97.30;;;;;;5044596;28;20363;-82
2023/04/02 08:41:38;;;;;;;;;;;9.00;97.00;;;;;;5031710;28;20125;-83
2023/04/02 08:44:12;;;;;;;24.13;14.15;;;9.10;97.10;;;;;;5045117;28;19951;-84
2023/04/02 08:46:50;;;;;;;30.10;18.65;;;9.10;97.00;;;;;;5035537;28;20029;-83
2023/04/02 08:49:25;;;;;;;19.83;13.52;;;9.00;97.10;;;;;;5043534;28;20033;-83
2023/04/02 08:51:52;;;;;;;23.13;15.98;;;9.00;97.00;;;;;;5052963;28;20509;-81
2023/04/02 08:54:28;;;;;;;29.27;18.08;;;8.80;97.20;;;;;;5036868;28;20025;-85
2023/04/02 08:57:14;;;;;;;28.98;17.23;;;8.80;97.60;;;;;;5044914;28;20029;-79
2023/04/02 08:59:43;;;;;;;30.20;18.75;;;9.00;97.50;;;;;;5045768;28;20013;-78
2023/04/02 09:02:18;;;;;;;23.17;16.25;;;9.00;97.30;;;;;;5049141;28;20410;-80
2023/04/02 09:04:44;;;;;;;30.70;17.23;;;9.10;97.30;;;;;;5040428;28;20048;-82
2023/04/02 09:07:15;;;;;;;26.15;15.75;;;8.90;97.20;;;;;;5038987;28;20021;-81
2023/04/02 09:09:42;;;;;;;26.52;16.27;;;8.90;97.40;;;;;;5038776;28;20094;-89
2023/04/02 09:12:30;;;;;;;28.73;15.95;;;9.00;97.50;;;;;;5030738;28;20025;-82
2023/04/02 09:15:28;;;;;;;31.38;17.67;;;9.10;97.60;;;;;;5034532;28;20032;-87
2023/04/02 09:18:13;;;;;;;24.48;16.42;;;9.10;97.40;;;;;;5038770;28;20021;-83
2023/04/02 09:20:40;;;;;;;29.95;17.92;;;9.20;97.10;;;;;;5027442;28;20021;-84
2023/04/02 09:23:14;;;;;;;34.83;16.65;;;9.20;97.20;;;;;;5026850;28;20032;-83
2023/04/02 09:25:45;;;;;;;28.33;17.60;;;9.30;97.00;;;;;;5024684;28;20021;-85
2023/04/02 09:28:11;;;;;;;25.20;16.08;;;9.20;97.10;;;;;;5034386;28;20033;-84
2023/04/02 09:30:50;;;;;;;33.78;19.23;;;9.20;97.10;;;;;;5048767;28;20097;-80
2023/04/02 09:33:16;;;;;;;22.48;15.68;;;9.30;97.30;;;;;;5057517;28;20017;-84
2023/04/02 09:35:50;;;;;;;26.05;16.13;;;9.40;97.00;;;;;;5036371;28;20029;-84
2023/04/02 09:38:34;;;;;;;27.95;19.13;;;9.40;97.00;;;;;;5047021;28;20025;-86
2023/04/02 09:41:18;;;;;;;23.13;14.82;;;9.50;97.10;;;;;;5021725;28;20025;-84
2023/04/02 09:43:47;;;;;;;23.92;16.02;;;9.50;96.60;;;;;;5042189;28;20025;-91
2023/04/02 09:46:14;;;;;;;24.00;14.02;;;9.30;96.80;;;;;;5026054;28;20026;-89
2023/04/02 09:48:48;;;;;;;29.13;17.90;;;9.30;97.10;;;;;;5054007;28;20089;-91
2023/04/02 09:51:19;;;;;;;30.85;18.75;;;9.40;97.30;;;;;;5069683;28;20020;-88
2023/04/02 09:53:50;;;;;;;24.83;14.95;;;9.60;97.10;;;;;;5039796;28;20030;-90
2023/04/02 09:56:22;;;;;;;26.05;16.40;;;9.60;96.80;;;;;;5051888;28;20045;-84
2023/04/02 09:59:16;;;;;;;23.73;16.33;;;9.70;96.80;;;;;;5041769;28;20021;-82
2023/04/02 10:01:56;;;;;;;22.23;13.88;;;9.80;96.70;;;;;;5045616;28;20482;-83
2023/04/02 10:04:46;;;;;;;18.00;13.55;;;9.70;96.20;;;;;;5022446;28;20052;-85
2023/04/02 10:07:31;;;;;;;21.20;14.60;;;9.50;96.80;;;;;;5037905;28;20101;-83
2023/04/02 10:10:25;;;;;;;25.92;17.15;;;9.60;96.80;;;;;;5036751;28;20030;-85
2023/04/02 10:13:15;;;;;;;23.80;15.80;;;9.90;96.90;;;;;;5039638;28;20445;-82
2023/04/02 10:16:11;;;;;;;23.52;14.20;;;10.10;96.40;;;;;;5018264;28;20433;-86
2023/04/02 10:18:42;;;;;;;23.92;13.57;;;10.20;95.80;;;;;;5024385;28;20125;-86
2023/04/02 10:21:13;;;;;;;24.20;13.82;;;10.10;95.60;;;;;;5039482;28;20025;-85
2023/04/02 10:23:39;;;;;;;22.35;12.75;;;10.00;95.90;;;;;;5016544;28;20043;-82
2023/04/02 10:26:11;;;;;;;19.25;12.88;;;9.90;95.90;;;;;;5033671;28;20024;-80
2023/04/02 10:29:04;;;;;;;20.33;13.43;;;10.10;96.00;;;;;;5024940;28;20045;-81
2023/04/02 10:31:52;;;;;;;23.05;14.80;;;10.20;95.70;;;;;;5032552;28;20029;-79
2023/04/02 10:34:35;;;;;;;21.55;13.18;;;10.40;95.60;;;;;;5037215;28;20044;-82
2023/04/02 10:37:21;;;;;;;19.45;11.60;;;10.40;95.20;;;;;;5047264;28;20438;-82
2023/04/02 10:39:58;;;;;;;19.50;13.82;;;10.30;95.20;;;;;;5035091;28;20021;-84
2023/04/02 10:42:33;;;;;;;21.67;13.30;;;10.50;95.50;;;;;;5013561;28;20491;-82
2023/04/02 10:45:10;;;;;;;19.10;13.52;;;10.70;94.60;;;;;;5034388;28;20017;-83
2023/04/02 10:48:10;;;;;;;18.30;13.75;;;10.70;94.70;;;;;;5033252;28;20033;-82
2023/04/02 10:50:54;;;;;;;22.90;14.63;;;11.00;94.70;;;;;;5033116;28;20033;-83
2023/04/02 10:53:26;;;;;;;18.30;13.15;;;11.50;94.10;;;;;;5030137;28;20021;-81
2023/04/02 10:55:57;;;;;;;24.20;13.48;;;11.90;93.20;;;;;;5047354;28;20096;-83
2023/04/02 10:58:29;;;;;;;22.52;14.20;;;12.20;92.60;;;;;;5047939;28;20021;-83
2023/04/02 11:01:27;;;;;;;21.38;14.52;;;12.40;92.20;;;;;;5048037;28;20026;-83
2023/04/02 11:03:58;;;;;;;24.08;15.70;;;12.70;92.00;;;;;;5032544;28;20038;-84
2023/04/02 11:06:29;;;;;;;21.92;15.90;;;12.90;91.10;;;;;;5024494;28;20077;-82
2023/04/02 11:09:00;;;;;;;21.92;14.43;;;13.00;90.50;;;;;;5044320;28;20112;-81
2023/04/02 11:11:37;;;;;;;24.40;15.73;;;12.90;90.10;;;;;;5038700;28;20071;-82
2023/04/02 11:14:17;;;;;;;23.63;15.55;;;12.70;90.50;;;;;;5039712;28;20022;-81
2023/04/02 11:16:44;;;;;;;20.45;14.75;;;12.80;90.80;;;;;;5033778;28;20021;-84
2023/04/02 11:19:16;;;;;;;23.50;14.18;;;13.10;90.40;;;;;;5035964;28;20018;-83
2023/04/02 11:21:56;;;;;;;28.60;16.40;;;13.40;89.30;;;;;;5042035;28;20497;-84
2023/04/02 11:24:32;;;;;;;28.50;15.40;;;13.40;88.90;;;;;;5054980;28;20033;-82
2023/04/02 11:27:05;;;;;;;19.55;12.95;;;13.40;88.50;;;;;;5059035;28;20086;-82
2023/04/02 11:29:33;;;;;;;22.77;12.63;;;13.20;87.30;;;;;;5037159;28;20083;-82
2023/04/02 11:32:22;;;;;;;18.58;10.75;;;12.60;88.30;;;;;;5050726;28;20021;-82
2023/04/02 11:34:48;;;;;;;17.52;14.07;;;12.00;89.30;;;;;;5049393;28;20429;-82
2023/04/02 11:37:43;;;;;;;18.17;11.77;;;11.70;90.70;;;;;;5037119;28;20049;-83
2023/04/02 11:40:14;;;;;;;26.00;12.95;;;11.50;90.90;;;;;;5038984;28;20036;-82
2023/04/02 11:42:45;;;;;;;23.35;16.00;;;11.40;91.20;;;;;;5038207;28;20379;-82
2023/04/02 11:45:24;;;;;;;19.15;12.43;;;11.30;91.60;;;;;;5036946;28;20022;-84
2023/04/02 11:48:00;;;;;;;25.33;17.05;;;11.50;91.50;;;;;;5022958;28;20461;-83
2023/04/02 11:50:31;;;;;;;25.15;14.38;;;11.60;91.60;;;;;;5046888;28;20034;-84
2023/04/02 11:53:09;;;;;;;28.27;17.13;;;11.50;91.40;;;;;;5039596;28;20034;-81
2023/04/02 11:55:37;;;;;;;23.90;14.60;;;11.50;91.90;;;;;;5038908;28;20028;-82
2023/04/02 11:58:12;;;;;;;22.23;13.45;;;11.60;91.50;;;;;;5038163;28;20025;-82
2023/04/02 12:00:59;;;;;;;21.45;14.60;;;11.50;91.30;;;;;;5048681;28;20028;-82
2023/04/02 12:03:37;;;;;;;22.90;16.60;;;11.20;91.80;;;;;;5022529;28;20584;-81
2023/04/02 12:06:47;;;;;;;33.50;19.00;;;11.10;92.10;;;;;;5018269;28;20049;-82
2023/04/02 12:09:22;;;;;;;24.58;14.20;;;11.30;92.40;;;;;;4919709;29;20138;-81
2023/04/02 12:11:51;;;;;;;26.02;15.98;;;11.40;92.00;;;;;;4953402;29;20023;-86
2023/04/02 12:14:35;;;;;;;28.05;17.45;;;11.20;92.00;;;;;;4953294;29;20039;-82
2023/04/02 12:17:16;;;;;;;26.88;16.85;;;11.20;92.30;;;;;;4955313;29;20050;-80
2023/04/02 12:19:50;;;;;;;29.08;15.82;;;11.30;92.30;;;;;;4944382;29;20056;-81
2023/04/02 12:22:32;;;;;;;23.65;16.63;;;11.50;92.20;;;;;;4951266;29;20047;-81
2023/04/02 12:25:21;;;;;;;28.65;16.38;;;11.50;92.00;;;;;;4965524;29;20497;-84
2023/04/02 12:27:48;;;;;;;26.33;15.32;;;11.50;91.90;;;;;;4968280;29;20039;-83
2023/04/02 12:30:19;;;;;;;21.15;13.52;;;11.40;92.10;;;;;;4959818;29;20060;-81
2023/04/02 12:32:46;;;;;;;22.48;14.68;;;11.60;92.10;;;;;;4930780;29;20028;-82
2023/04/02 12:35:33;;;;;;;29.52;16.48;;;11.60;92.00;;;;;;4949634;29;20034;-85
2023/04/02 12:37:59;;;;;;;23.10;15.23;;;11.70;92.20;;;;;;4956087;29;20024;-84
2023/04/02 12:40:26;;;;;;;17.92;12.75;;;12.00;91.70;;;;;;4945786;29;20023;-82
2023/04/02 12:42:53;;;;;;;23.42;15.77;;;12.10;91.20;;;;;;4990658;28;20026;-84
2023/04/02 12:45:32;;;;;;;21.17;14.68;;;12.00;91.20;;;;;;5022111;28;20021;-87
2023/04/02 12:48:03;;;;;;;22.42;16.15;;;12.10;90.90;;;;;;5027732;28;20041;-85
2023/04/02 12:50:32;;;;;;;24.45;14.18;;;12.10;90.80;;;;;;5049227;28;20080;-81
2023/04/02 12:52:59;;;;;;;23.13;14.73;;;12.00;90.60;;;;;;5028601;28;20467;-83
2023/04/02 12:55:26;;;;;;;27.25;15.48;;;12.00;90.80;;;;;;5035702;28;20022;-84
2023/04/02 12:57:57;;;;;;;25.75;16.10;;;12.00;90.90;;;;;;5044369;28;20033;-86
2023/04/02 13:00:26;;;;;;;22.50;14.38;;;12.10;91.00;;;;;;5023902;28;20075;-83
2023/04/02 13:03:02;;;;;;;21.73;15.25;;;12.10;90.70;;;;;;5045152;28;20025;-84
2023/04/02 13:05:41;;;;;;;25.23;15.55;;;12.00;90.70;;;;;;5034656;28;20049;-89
2023/04/02 13:08:29;;;;;;;28.98;14.15;;;12.00;90.70;;;;;;5034436;28;20116;-89
2023/04/02 13:11:03;;;;;;;20.10;12.93;;;12.00;90.60;;;;;;5034070;28;20014;-88
2023/04/02 13:13:36;;;;;;;20.02;14.25;;;11.70;90.50;;;;;;5022004;28;20030;-89
2023/04/02 13:16:14;;;;;;;23.35;13.80;;;11.60;90.80;;;;;;5017934;28;20027;-89